createdAt,value
2022-12-24T00:01:05.342Z,90.63
2022-12-24T00:03:32.892Z,98.40
2022-12-24T00:06:03.764Z,87.63
2022-12-24T00:08:30.806Z,92.90
2022-12-24T00:10:57.848Z,82.90
2022-12-24T00:13:25.107Z,98.30
2022-12-24T00:15:52.322Z,93.70
2022-12-24T00:18:19.342Z,93.47
2022-12-24T00:20:50.181Z,83.33
2022-12-24T00:23:17.993Z,91.03
2022-12-24T00:25:45.339Z,77.60
2022-12-24T00:28:13.241Z,80.20
2022-12-24T00:30:41.757Z,78.97
2022-12-24T00:33:08.905Z,86.87
2022-12-24T00:35:36.655Z,92.63
2022-12-24T00:38:04.068Z,84.07
2022-12-24T00:40:31.815Z,82.17
2022-12-24T00:42:59.193Z,84.87
2022-12-24T00:45:28.015Z,86.77
2022-12-24T00:47:55.308Z,82.73
2022-12-24T00:50:22.363Z,84.27
2022-12-24T00:52:49.358Z,80.90
2022-12-24T00:55:16.446Z,85.17
2022-12-24T00:57:43.406Z,84.70
2022-12-24T01:00:10.749Z,83.07
2022-12-24T01:02:38.252Z,83.30
2022-12-24T01:05:11.835Z,75.30
2022-12-24T01:07:41.861Z,79.53
2022-12-24T01:10:10.052Z,84.57
2022-12-24T01:12:37.535Z,86.70
2022-12-24T01:15:05.248Z,79.27
2022-12-24T01:17:33.570Z,86.80
2022-12-24T01:20:00.804Z,82.47
2022-12-24T01:22:28.135Z,79.97
2022-12-24T01:24:55.155Z,81.07
2022-12-24T01:27:22.328Z,78.40
2022-12-24T01:29:49.403Z,79.90
2022-12-24T01:32:16.461Z,81.07
2022-12-24T01:34:43.492Z,81.87
2022-12-24T01:37:10.546Z,82.27
2022-12-24T01:39:37.638Z,85.77
2022-12-24T01:42:38.490Z,79.70
2022-12-24T01:45:43.106Z,81.73
2022-12-24T01:48:21.552Z,84.70
2022-12-24T01:50:53.580Z,80.97
2022-12-24T01:53:20.715Z,79.90
2022-12-24T01:55:48.845Z,79.13
2022-12-24T01:58:17.955Z,82.03
2022-12-24T02:00:45.118Z,87.67
2022-12-24T02:03:12.398Z,86.50
2022-12-24T02:05:50.230Z,81.53
2022-12-24T02:08:18.260Z,80.97
2022-12-24T02:10:47.094Z,83.20
2022-12-24T02:13:16.484Z,79.93
2022-12-24T02:16:21.239Z,83.47
2022-12-24T02:19:11.055Z,77.60
2022-12-24T02:21:53.671Z,83.97
2022-12-24T02:24:42.132Z,85.13
2022-12-24T02:27:23.971Z,81.80
2022-12-24T02:30:08.980Z,91.93
2022-12-24T02:32:45.087Z,77.10
2022-12-24T02:35:40.197Z,87.40
2022-12-24T02:38:13.006Z,86.37
2022-12-24T02:40:46.843Z,86.13
2022-12-24T02:43:24.592Z,84.60
2022-12-24T02:46:01.832Z,90.50
2022-12-24T02:48:31.458Z,88.30
2022-12-24T02:51:03.404Z,82.53
2022-12-24T02:53:31.070Z,86.03
2022-12-24T02:56:14.207Z,80.07
2022-12-24T02:58:49.886Z,84.03
2022-12-24T03:01:31.814Z,81.53
2022-12-24T03:04:39.559Z,80.53
2022-12-24T03:07:27.664Z,78.10
2022-12-24T03:10:29.712Z,87.37
2022-12-24T03:13:02.090Z,93.53
2022-12-24T03:15:32.198Z,79.83
2022-12-24T03:18:02.536Z,90.67
2022-12-24T03:21:00.082Z,86.37
2022-12-24T03:23:27.314Z,76.10
2022-12-24T03:25:54.941Z,78.33
2022-12-24T03:28:27.035Z,85.50
2022-12-24T03:30:54.832Z,86.70
2022-12-24T03:33:22.219Z,75.40
2022-12-24T03:35:49.223Z,74.10
2022-12-24T03:38:16.284Z,74.87
2022-12-24T03:40:43.218Z,72.23
2022-12-24T03:43:10.217Z,70.57
2022-12-24T03:45:37.481Z,70.87
2022-12-24T03:48:04.818Z,76.13
2022-12-24T03:50:32.459Z,74.40
2022-12-24T03:52:59.632Z,82.53
2022-12-24T03:55:26.824Z,78.47
2022-12-24T03:57:53.775Z,76.27
2022-12-24T04:00:21.063Z,73.03
2022-12-24T04:02:48.303Z,79.50
2022-12-24T04:05:19.082Z,78.13
2022-12-24T04:07:46.989Z,80.93
2022-12-24T04:10:15.164Z,80.83
2022-12-24T04:12:42.242Z,83.33
2022-12-24T04:15:10.497Z,77.93
2022-12-24T04:17:37.502Z,79.30
2022-12-24T04:20:05.131Z,83.03
2022-12-24T04:22:32.678Z,81.03
2022-12-24T04:24:59.631Z,88.90
2022-12-24T04:27:30.328Z,80.67
2022-12-24T04:29:57.904Z,83.13
2022-12-24T04:32:27.022Z,77.57
2022-12-24T04:34:54.164Z,83.13
2022-12-24T04:37:21.271Z,86.47
2022-12-24T04:39:48.224Z,84.77
2022-12-24T04:42:15.179Z,83.97
2022-12-24T04:44:42.110Z,77.10
2022-12-24T04:47:10.844Z,80.57
2022-12-24T04:49:37.943Z,80.27
2022-12-24T04:52:05.225Z,73.47
2022-12-24T04:54:32.241Z,85.40
2022-12-24T04:56:59.297Z,82.03
2022-12-24T04:59:26.357Z,87.53
2022-12-24T05:01:53.589Z,82.27
2022-12-24T05:04:20.693Z,74.80
2022-12-24T05:06:47.676Z,75.47
2022-12-24T05:09:14.622Z,80.17
2022-12-24T05:11:41.619Z,80.80
2022-12-24T05:14:08.618Z,78.93
2022-12-24T05:16:35.668Z,79.17
2022-12-24T05:19:02.811Z,81.30
2022-12-24T05:21:29.725Z,75.83
2022-12-24T05:24:15.468Z,84.77
2022-12-24T05:26:47.037Z,81.53
2022-12-24T05:29:14.224Z,76.47
2022-12-24T05:31:42.433Z,72.03
2022-12-24T05:34:10.389Z,77.03
2022-12-24T05:36:37.870Z,80.13
2022-12-24T05:39:11.652Z,85.10
2022-12-24T05:41:40.639Z,80.33
2022-12-24T05:44:07.629Z,78.10
2022-12-24T05:46:34.670Z,82.67
2022-12-24T05:49:01.833Z,83.30
2022-12-24T05:51:28.863Z,92.50
2022-12-24T05:53:55.908Z,82.33
2022-12-24T05:56:24.419Z,86.00
2022-12-24T05:58:53.591Z,78.80
2022-12-24T06:01:22.322Z,84.87
2022-12-24T06:03:49.981Z,74.43
2022-12-24T06:06:25.568Z,84.10
2022-12-24T06:08:54.050Z,82.83
2022-12-24T06:11:23.831Z,78.23
2022-12-24T06:13:52.051Z,89.13
2022-12-24T06:16:20.877Z,90.73
2022-12-24T06:18:48.384Z,87.27
2022-12-24T06:21:15.658Z,86.77
2022-12-24T06:23:44.280Z,90.37
2022-12-24T06:26:13.844Z,87.17
2022-12-24T06:28:40.995Z,95.93
2022-12-24T06:31:12.378Z,88.57
2022-12-24T06:33:39.669Z,83.33
2022-12-24T06:36:14.974Z,86.73
2022-12-24T06:38:44.268Z,83.63
2022-12-24T06:41:11.231Z,85.73
2022-12-24T06:43:38.264Z,83.47
2022-12-24T06:46:05.515Z,79.87
2022-12-24T06:48:32.680Z,88.10
2022-12-24T06:51:03.161Z,83.60
2022-12-24T06:53:31.145Z,91.97
2022-12-24T06:56:05.742Z,82.37
2022-12-24T06:58:34.251Z,86.60
2022-12-24T07:01:02.952Z,81.87
2022-12-24T07:03:30.696Z,80.67
2022-12-24T07:05:58.136Z,84.00
2022-12-24T07:08:25.386Z,78.57
2022-12-24T07:10:54.485Z,89.67
2022-12-24T07:13:21.914Z,83.77
2022-12-24T07:15:58.009Z,88.07
2022-12-24T07:18:24.986Z,80.50
2022-12-24T07:20:52.142Z,82.37
2022-12-24T07:23:19.156Z,91.93
2022-12-24T07:25:46.147Z,85.70
2022-12-24T07:28:13.222Z,81.97
2022-12-24T07:30:40.299Z,79.70
2022-12-24T07:33:08.447Z,91.73
2022-12-24T07:35:35.641Z,88.83
2022-12-24T07:38:03.029Z,83.60
2022-12-24T07:40:30.001Z,85.97
2022-12-24T07:42:57.014Z,83.60
2022-12-24T07:45:24.051Z,81.20
2022-12-24T07:47:51.192Z,83.10
2022-12-24T07:50:18.224Z,84.93
2022-12-24T07:52:45.546Z,83.93
2022-12-24T07:55:12.625Z,79.77
2022-12-24T07:57:39.774Z,92.20
2022-12-24T08:00:07.400Z,85.13
2022-12-24T08:02:39.022Z,81.67
2022-12-24T08:05:06.752Z,78.47
2022-12-24T08:07:33.973Z,87.60
2022-12-24T08:10:01.051Z,82.43
2022-12-24T08:12:28.176Z,87.97
2022-12-24T08:14:55.146Z,87.03
2022-12-24T08:17:25.509Z,94.37
2022-12-24T08:19:55.531Z,89.47
2022-12-24T08:22:22.519Z,93.50
2022-12-24T08:24:49.544Z,90.53
2022-12-24T08:27:16.635Z,94.10
2022-12-24T08:29:43.630Z,95.43
2022-12-24T08:32:10.750Z,88.57
2022-12-24T08:34:37.784Z,93.63
2022-12-24T08:37:04.788Z,90.57
2022-12-24T08:39:31.835Z,104.63
2022-12-24T08:41:58.929Z,90.17
2022-12-24T08:44:25.916Z,98.57
2022-12-24T08:46:52.917Z,97.23
2022-12-24T08:49:19.941Z,96.63
2022-12-24T08:51:47.190Z,99.53
2022-12-24T08:54:14.195Z,98.03
2022-12-24T08:56:41.190Z,96.63
2022-12-24T08:59:08.340Z,96.50
2022-12-24T09:01:35.373Z,100.97
2022-12-24T09:04:02.972Z,92.60
2022-12-24T09:06:30.134Z,100.30
2022-12-24T09:08:57.801Z,93.00
2022-12-24T09:11:25.715Z,95.93
2022-12-24T09:13:53.024Z,97.03
2022-12-24T09:16:20.573Z,98.33
2022-12-24T09:18:47.604Z,98.03
2022-12-24T09:21:17.507Z,91.20
2022-12-24T09:23:46.044Z,96.37
2022-12-24T09:26:19.821Z,95.10
2022-12-24T09:28:47.472Z,88.13
2022-12-24T09:31:14.748Z,94.50
2022-12-24T09:33:43.832Z,97.37
2022-12-24T09:36:10.823Z,92.37
2022-12-24T09:38:38.452Z,99.67
2022-12-24T09:41:13.519Z,89.77
2022-12-24T09:43:45.821Z,92.50
2022-12-24T09:46:36.768Z,97.53
2022-12-24T09:49:09.318Z,99.90
2022-12-24T09:51:39.781Z,99.70
2022-12-24T09:54:12.880Z,93.03
2022-12-24T09:56:43.724Z,94.57
2022-12-24T09:59:15.472Z,100.80
2022-12-24T10:01:42.777Z,98.43
2022-12-24T10:04:15.864Z,98.53
2022-12-24T10:07:03.135Z,93.33
2022-12-24T10:09:59.959Z,105.57
2022-12-24T10:12:35.912Z,102.77
2022-12-24T10:15:30.913Z,99.37
2022-12-24T10:18:12.918Z,107.47
2022-12-24T10:20:43.473Z,93.27
2022-12-24T10:23:38.660Z,106.67
2022-12-24T10:26:18.362Z,97.90
2022-12-24T10:28:56.797Z,95.50
2022-12-24T10:31:27.610Z,104.17
2022-12-24T10:34:01.920Z,100.33
2022-12-24T10:36:31.317Z,105.10
2022-12-24T10:38:59.394Z,105.33
2022-12-24T10:41:28.487Z,100.30
2022-12-24T10:43:56.308Z,102.60
2022-12-24T10:46:40.862Z,104.03
2022-12-24T10:49:14.612Z,103.33
2022-12-24T10:51:56.137Z,105.80
2022-12-24T10:54:27.778Z,109.57
2022-12-24T10:57:02.475Z,106.23
2022-12-24T10:59:33.884Z,105.13
2022-12-24T11:02:02.053Z,104.27
2022-12-24T11:04:32.518Z,100.73
2022-12-24T11:07:06.309Z,111.43
2022-12-24T11:09:41.297Z,118.00
2022-12-24T11:12:19.270Z,100.87
2022-12-24T11:14:46.368Z,104.73
2022-12-24T11:17:22.428Z,107.27
2022-12-24T11:19:50.635Z,107.50
2022-12-24T11:22:28.016Z,107.87
2022-12-24T11:25:29.203Z,106.57
2022-12-24T11:28:12.111Z,110.20
2022-12-24T11:30:39.312Z,112.87
2022-12-24T11:33:16.530Z,105.27
2022-12-24T11:35:49.927Z,113.30
2022-12-24T11:38:23.136Z,116.90
2022-12-24T11:41:01.803Z,116.10
2022-12-24T11:43:45.921Z,114.63
2022-12-24T11:46:20.454Z,121.57
2022-12-24T11:48:48.453Z,117.37
2022-12-24T11:51:25.566Z,119.70
2022-12-24T11:54:08.349Z,113.77
2022-12-24T11:56:44.524Z,116.73
2022-12-24T11:59:37.894Z,111.57
2022-12-24T12:02:23.530Z,106.60
2022-12-24T12:05:05.349Z,115.40
2022-12-24T12:07:36.715Z,110.87
2022-12-24T12:10:20.749Z,118.37
2022-12-24T12:12:53.695Z,108.97
2022-12-24T12:15:27.136Z,110.53
2022-12-24T12:18:11.329Z,126.10
2022-12-24T12:21:00.807Z,119.70
2022-12-24T12:23:49.999Z,126.03
2022-12-24T12:26:29.565Z,114.83
2022-12-24T12:28:59.487Z,124.43
2022-12-24T12:31:42.100Z,126.07
2022-12-24T12:34:18.127Z,130.57
2022-12-24T12:37:00.616Z,129.80
2022-12-24T12:39:27.682Z,130.90
2022-12-24T12:42:20.877Z,132.93
2022-12-24T12:45:06.214Z,140.87
2022-12-24T12:47:48.026Z,132.53
2022-12-24T12:50:23.156Z,137.07
2022-12-24T12:53:11.996Z,134.40
2022-12-24T12:55:59.230Z,137.07
2022-12-24T12:58:52.556Z,134.67
2022-12-24T13:01:35.161Z,138.97
2022-12-24T13:04:29.699Z,143.33
2022-12-24T13:07:11.633Z,149.30
2022-12-24T13:09:55.468Z,138.47
2022-12-24T13:13:00.191Z,143.60
2022-12-24T13:15:27.190Z,155.87
2022-12-24T13:18:21.864Z,147.60
2022-12-24T13:20:50.651Z,152.30
2022-12-24T13:23:23.271Z,148.00
2022-12-24T13:25:52.762Z,150.27
2022-12-24T13:28:25.559Z,154.37
2022-12-24T13:31:14.230Z,145.67
2022-12-24T13:33:41.212Z,144.47
2022-12-24T13:36:15.199Z,149.97
2022-12-24T13:38:53.926Z,147.30
2022-12-24T13:41:41.480Z,146.43
2022-12-24T13:44:13.281Z,158.77
2022-12-24T13:46:52.282Z,147.47
2022-12-24T13:49:39.314Z,147.10
2022-12-24T13:52:12.072Z,155.47
2022-12-24T13:54:47.709Z,151.00
2022-12-24T13:57:44.809Z,154.63
2022-12-24T14:00:21.047Z,149.67
2022-12-24T14:02:48.155Z,141.70
2022-12-24T14:05:34.946Z,142.13
2022-12-24T14:08:06.678Z,153.30
2022-12-24T14:10:42.456Z,148.67
2022-12-24T14:13:40.535Z,154.73
2022-12-24T14:16:27.631Z,149.90
2022-12-24T14:19:09.745Z,151.93
2022-12-24T14:21:42.931Z,138.10
2022-12-24T14:24:37.825Z,138.43
2022-12-24T14:27:37.680Z,143.50
2022-12-24T14:30:22.786Z,139.17
2022-12-24T14:32:50.989Z,140.07
2022-12-24T14:35:21.724Z,151.30
2022-12-24T14:38:06.804Z,139.07
2022-12-24T14:41:11.218Z,151.70
2022-12-24T14:43:57.018Z,150.73
2022-12-24T14:46:27.148Z,159.47
2022-12-24T14:49:11.557Z,137.37
2022-12-24T14:51:50.360Z,149.87
2022-12-24T14:54:38.577Z,149.03
2022-12-24T14:57:11.397Z,138.77
2022-12-24T15:00:18.056Z,144.77
2022-12-24T15:02:52.361Z,145.73
2022-12-24T15:05:29.009Z,144.43
2022-12-24T15:08:04.266Z,153.60
2022-12-24T15:10:38.227Z,152.87
2022-12-24T15:13:46.194Z,144.70
2022-12-24T15:16:19.080Z,138.73
2022-12-24T15:19:09.001Z,153.77
2022-12-24T15:21:42.609Z,151.33
2022-12-24T15:24:28.953Z,139.47
2022-12-24T15:26:56.518Z,148.90
2022-12-24T15:29:27.543Z,156.07
2022-12-24T15:32:00.422Z,150.00
2022-12-24T15:34:40.034Z,139.60
2022-12-24T15:37:29.700Z,144.47
2022-12-24T15:39:59.710Z,152.70
2022-12-24T15:42:28.440Z,142.40
2022-12-24T15:45:06.503Z,153.43
2022-12-24T15:47:39.230Z,142.20
2022-12-24T15:50:16.865Z,131.83
2022-12-24T15:52:44.626Z,144.47
2022-12-24T15:55:35.962Z,137.37
2022-12-24T15:58:13.053Z,136.83
2022-12-24T16:00:40.437Z,140.67
2022-12-24T16:03:16.890Z,137.90
2022-12-24T16:05:44.068Z,158.27
2022-12-24T16:08:14.049Z,147.10
2022-12-24T16:10:54.039Z,153.23
2022-12-24T16:13:25.117Z,145.27
2022-12-24T16:16:02.103Z,147.80
2022-12-24T16:18:38.437Z,156.80
2022-12-24T16:21:08.048Z,143.13
2022-12-24T16:23:46.216Z,158.83
2022-12-24T16:26:13.237Z,162.90
2022-12-24T16:28:40.257Z,147.90
2022-12-24T16:31:07.516Z,155.07
2022-12-24T16:33:34.575Z,152.37
2022-12-24T16:36:01.616Z,159.93
2022-12-24T16:38:48.570Z,158.97
2022-12-24T16:41:15.573Z,146.50
2022-12-24T16:43:51.615Z,158.70
2022-12-24T16:46:18.963Z,151.03
2022-12-24T16:48:48.487Z,137.53
2022-12-24T16:51:15.640Z,147.13
2022-12-24T16:53:42.777Z,167.93
2022-12-24T16:56:09.784Z,140.87
2022-12-24T16:58:36.816Z,147.20
2022-12-24T17:01:09.060Z,134.70
2022-12-24T17:03:36.534Z,148.13
2022-12-24T17:06:07.561Z,138.07
2022-12-24T17:08:34.672Z,158.30
2022-12-24T17:11:01.655Z,149.10
2022-12-24T17:13:28.806Z,142.97
2022-12-24T17:15:55.869Z,143.90
2022-12-24T17:18:23.003Z,136.40
2022-12-24T17:21:04.159Z,128.93
2022-12-24T17:23:31.157Z,130.10
2022-12-24T17:25:58.462Z,125.77
2022-12-24T17:28:25.742Z,145.47
2022-12-24T17:30:52.740Z,122.93
2022-12-24T17:33:19.752Z,135.90
2022-12-24T17:35:48.461Z,129.23
2022-12-24T17:38:15.475Z,122.40
2022-12-24T17:40:42.505Z,122.77
2022-12-24T17:43:09.654Z,122.27
2022-12-24T17:45:41.496Z,125.47
2022-12-24T17:48:08.577Z,120.23
2022-12-24T17:50:41.991Z,110.73
2022-12-24T17:53:09.055Z,116.67
2022-12-24T17:55:40.771Z,120.60
2022-12-24T17:58:08.221Z,114.90
2022-12-24T18:00:35.432Z,114.93
2022-12-24T18:03:02.480Z,116.60
2022-12-24T18:05:29.696Z,119.83
2022-12-24T18:07:56.702Z,125.27
2022-12-24T18:10:23.682Z,120.00
2022-12-24T18:12:50.707Z,128.00
2022-12-24T18:15:22.070Z,113.07
2022-12-24T18:17:53.998Z,125.50
2022-12-24T18:20:22.089Z,119.10
2022-12-24T18:22:49.388Z,126.70
2022-12-24T18:25:16.548Z,129.93
2022-12-24T18:27:43.521Z,114.43
2022-12-24T18:30:10.927Z,130.27
2022-12-24T18:32:38.055Z,127.47
2022-12-24T18:35:06.071Z,125.13
2022-12-24T18:37:34.013Z,134.57
2022-12-24T18:40:01.036Z,131.03
2022-12-24T18:42:28.054Z,134.90
2022-12-24T18:44:55.074Z,135.20
2022-12-24T18:47:22.102Z,130.03
2022-12-24T18:49:49.331Z,141.03
2022-12-24T18:52:22.387Z,124.73
2022-12-24T18:54:50.671Z,134.97
2022-12-24T18:57:17.674Z,135.80
2022-12-24T18:59:44.721Z,125.03
2022-12-24T19:02:11.847Z,133.37
2022-12-24T19:04:39.051Z,140.63
2022-12-24T19:07:06.014Z,128.13
2022-12-24T19:09:32.980Z,135.27
2022-12-24T19:11:59.986Z,130.67
2022-12-24T19:14:27.011Z,189.53
2022-12-24T19:16:54.091Z,142.63
2022-12-24T19:19:24.559Z,138.83
2022-12-24T19:21:51.933Z,145.57
2022-12-24T19:24:20.337Z,149.23
2022-12-24T19:26:48.704Z,137.67
2022-12-24T19:29:15.749Z,145.93
2022-12-24T19:31:47.256Z,146.53
2022-12-24T19:34:14.720Z,140.50
2022-12-24T19:36:41.836Z,147.03
2022-12-24T19:39:08.886Z,133.40
2022-12-24T19:41:35.813Z,170.13
2022-12-24T19:44:02.883Z,144.40
2022-12-24T19:46:33.648Z,131.70
2022-12-24T19:49:05.119Z,146.83
2022-12-24T19:51:33.232Z,132.60
2022-12-24T19:54:01.106Z,146.30
2022-12-24T19:56:30.915Z,133.53
2022-12-24T19:58:59.193Z,146.83
2022-12-24T20:01:29.193Z,152.67
2022-12-24T20:03:57.229Z,163.70
2022-12-24T20:06:27.393Z,131.47
2022-12-24T20:09:00.238Z,157.13
2022-12-24T20:11:27.733Z,205.30
2022-12-24T20:13:59.478Z,142.10
2022-12-24T20:16:27.520Z,140.03
2022-12-24T20:18:59.704Z,134.63
2022-12-24T20:21:28.057Z,167.97
2022-12-24T20:23:55.594Z,142.13
2022-12-24T20:26:26.152Z,129.10
2022-12-24T20:28:53.658Z,135.97
2022-12-24T20:31:27.520Z,155.13
2022-12-24T20:33:56.055Z,138.70
2022-12-24T20:36:24.592Z,132.00
2022-12-24T20:38:51.637Z,144.00
2022-12-24T20:41:20.861Z,156.83
2022-12-24T20:43:49.076Z,211.67
2022-12-24T20:46:23.081Z,161.07
2022-12-24T20:48:50.745Z,148.20
2022-12-24T20:51:24.300Z,141.20
2022-12-24T20:53:53.793Z,139.00
2022-12-24T20:56:21.235Z,160.67
2022-12-24T20:58:48.830Z,161.93
2022-12-24T21:01:21.866Z,144.70
2022-12-24T21:03:49.015Z,205.37
2022-12-24T21:06:18.052Z,174.27
2022-12-24T21:08:53.193Z,149.37
2022-12-24T21:11:47.099Z,199.97
2022-12-24T21:14:15.419Z,172.97
2022-12-24T21:16:42.488Z,227.97
2022-12-24T21:19:14.020Z,156.83
2022-12-24T21:21:41.179Z,201.50
2022-12-24T21:24:08.411Z,222.57
2022-12-24T21:26:36.423Z,229.77
2022-12-24T21:29:04.742Z,220.87
2022-12-24T21:31:32.052Z,202.60
2022-12-24T21:33:59.124Z,212.30
2022-12-24T21:36:27.015Z,214.20
2022-12-24T21:38:54.641Z,199.43
2022-12-24T21:41:23.745Z,199.63
2022-12-24T21:43:50.848Z,220.33
2022-12-24T21:46:23.119Z,204.77
2022-12-24T21:49:09.849Z,189.10
2022-12-24T21:51:37.213Z,196.93
2022-12-24T21:54:23.789Z,227.80
2022-12-24T21:57:10.778Z,213.83
2022-12-24T21:59:38.129Z,185.40
2022-12-24T22:02:05.397Z,188.33
2022-12-24T22:04:33.432Z,248.50
2022-12-24T22:07:19.049Z,236.90
2022-12-24T22:10:04.640Z,264.43
2022-12-24T22:12:34.872Z,204.00
2022-12-24T22:15:04.585Z,264.07
2022-12-24T22:17:31.597Z,214.73
2022-12-24T22:19:58.529Z,291.83
2022-12-24T22:22:25.613Z,213.80
2022-12-24T22:24:52.576Z,195.10
2022-12-24T22:27:19.810Z,204.47
2022-12-24T22:29:46.858Z,267.93
2022-12-24T22:32:13.882Z,244.50
2022-12-24T22:34:41.023Z,196.10
2022-12-24T22:37:08.151Z,196.37
2022-12-24T22:39:35.186Z,215.67
2022-12-24T22:42:02.446Z,186.70
2022-12-24T22:44:29.437Z,246.80
2022-12-24T22:46:56.377Z,262.67
2022-12-24T22:49:23.425Z,210.20
2022-12-24T22:51:50.478Z,184.13
2022-12-24T22:54:17.473Z,194.30
2022-12-24T22:56:44.585Z,177.03
2022-12-24T22:59:14.591Z,171.40
2022-12-24T23:01:44.892Z,171.60
2022-12-24T23:04:13.840Z,167.73
2022-12-24T23:06:41.706Z,204.97
2022-12-24T23:09:11.637Z,175.00
2022-12-24T23:11:40.172Z,172.80
2022-12-24T23:14:26.206Z,170.33
2022-12-24T23:16:53.387Z,186.33
2022-12-24T23:19:20.366Z,188.53
2022-12-24T23:21:47.342Z,221.23
2022-12-24T23:24:14.525Z,188.57
2022-12-24T23:26:42.229Z,187.37
2022-12-24T23:29:09.293Z,187.60
2022-12-24T23:31:37.757Z,175.37
2022-12-24T23:34:05.148Z,185.17
2022-12-24T23:36:32.216Z,163.10
2022-12-24T23:38:59.591Z,159.80
2022-12-24T23:41:26.665Z,174.47
2022-12-24T23:43:53.736Z,172.77
2022-12-24T23:46:21.674Z,164.77
2022-12-24T23:48:52.565Z,182.70
2022-12-24T23:51:23.630Z,195.43
2022-12-24T23:53:52.336Z,178.60
2022-12-24T23:56:20.353Z,189.00
2022-12-24T23:58:47.592Z,178.13
